Time;durP1;ratioP1;P1;durP2;ratioP2;P2;SDS_P1;SDS_P2;PMS_P1;PMS_P2;Temp;Humidity;BMP_temperature;BMP_pressure;BME280_temperature;BME280_humidity;BME280_pressure;Samples;Min_cycle;Max_cycle;Signal;HPM_P1;HPM_P2
2022/04/23 00:01:08;;;;;;;;;;;21.10;31.60;;;;;;8364988;28;19939;-45
2022/04/23 00:05:10;;;;;;;;;;;21.10;31.60;;;;;;8365250;28;19924;-46
2022/04/23 00:09:10;;;;;;;;;;;21.00;31.80;;;;;;8364421;28;19916;-46
2022/04/23 00:13:11;;;;;;;;;;;21.10;31.60;;;;;;8364249;28;19937;-45
2022/04/23 00:17:11;;;;;;;;;;;21.00;31.60;;;;;;8364273;28;19931;-45
2022/04/23 00:21:11;;;;;;;;;;;21.00;31.60;;;;;;8363711;28;19917;-45
2022/04/23 00:25:12;;;;;;;;;;;21.00;31.60;;;;;;8364304;28;20011;-46
2022/04/23 00:29:12;;;;;;;;;;;21.00;31.60;;;;;;8364193;28;19920;-46
2022/04/23 00:33:13;;;;;;;;;;;21.00;31.60;;;;;;8364018;28;20046;-46
2022/04/23 00:37:14;;;;;;;;;;;21.00;31.70;;;;;;8363767;28;19925;-45
2022/04/23 00:41:45;;;;;;;;;;;21.00;31.60;;;;;;8363703;28;19924;-46
2022/04/23 00:45:34;;;;;;;;;;;21.00;31.70;;;;;;8362809;28;20306;-45
2022/04/23 00:49:35;;;;;;;;;;;21.00;31.70;;;;;;8363748;28;19920;-48
2022/04/23 00:53:36;;;;;;;;;;;20.90;31.60;;;;;;8362838;28;19916;-46
2022/04/23 00:57:36;;;;;;;;;;;20.90;31.60;;;;;;8363063;28;19925;-45
2022/04/23 01:01:40;;;;;;;;;;;20.90;31.60;;;;;;8363372;28;20043;-45
2022/04/23 01:05:46;;;;;;;;;;;20.90;31.70;;;;;;8361389;28;19925;-46
2022/04/23 01:09:48;;;;;;;;;;;20.90;31.70;;;;;;8363376;28;19948;-45
2022/04/23 01:13:48;;;;;;;;;;;20.90;31.70;;;;;;8363358;28;19917;-45
2022/04/23 01:17:49;;;;;;;;;;;20.90;31.70;;;;;;8362355;28;19979;-45
2022/04/23 01:21:50;;;;;;;;;;;20.80;31.70;;;;;;8362853;28;19982;-45
2022/04/23 01:25:52;;;;;;;;;;;20.80;31.70;;;;;;8362840;28;20342;-45
2022/04/23 01:29:54;;;;;;;;;;;20.80;31.70;;;;;;8362589;28;19913;-45
2022/04/23 01:33:55;;;;;;;;;;;20.80;31.70;;;;;;8362657;28;19956;-45
2022/04/23 01:37:55;;;;;;;;;;;20.80;31.70;;;;;;8362833;28;19917;-46
2022/04/23 01:41:56;;;;;;;;;;;20.80;31.70;;;;;;8362136;28;19917;-45
2022/04/23 01:45:56;;;;;;;;;;;20.80;31.70;;;;;;8362490;28;20022;-46
2022/04/23 01:49:57;;;;;;;;;;;20.80;31.80;;;;;;8362902;28;19917;-45
2022/04/23 01:53:57;;;;;;;;;;;20.70;31.70;;;;;;8361839;28;19962;-47
2022/04/23 01:57:58;;;;;;;;;;;20.70;32.30;;;;;;8366074;28;19917;-45
2022/04/23 02:02:01;;;;;;;;;;;20.70;31.70;;;;;;8368532;28;19917;-45
2022/04/23 02:06:01;;;;;;;;;;;20.70;31.80;;;;;;8367819;28;19921;-45
2022/04/23 02:10:02;;;;;;;;;;;20.70;31.80;;;;;;8368941;28;19913;-45
2022/04/23 02:14:03;;;;;;;;;;;20.70;31.80;;;;;;8368205;28;19917;-44
2022/04/23 02:18:05;;;;;;;;;;;20.70;31.80;;;;;;8367572;28;19924;-45
2022/04/23 02:22:06;;;;;;;;;;;20.70;31.80;;;;;;8367773;28;20390;-45
2022/04/23 02:26:06;;;;;;;;;;;20.70;31.80;;;;;;8367794;28;19962;-45
2022/04/23 02:30:07;;;;;;;;;;;20.70;31.80;;;;;;8367580;28;19913;-46
2022/04/23 02:34:07;;;;;;;;;;;20.60;31.80;;;;;;8367502;28;20011;-46
2022/04/23 02:38:09;;;;;;;;;;;20.70;31.90;;;;;;8367429;28;20393;-46
2022/04/23 02:42:10;;;;;;;;;;;20.60;31.80;;;;;;8366760;28;20023;-46
2022/04/23 02:46:14;;;;;;;;;;;20.60;31.80;;;;;;8367434;28;20258;-45
2022/04/23 02:50:15;;;;;;;;;;;20.60;31.80;;;;;;8367386;28;19917;-46
2022/04/23 02:54:17;;;;;;;;;;;20.60;31.80;;;;;;8366372;28;19917;-45
2022/04/23 02:58:18;;;;;;;;;;;20.60;31.90;;;;;;8366741;28;19917;-45
2022/04/23 03:02:18;;;;;;;;;;;20.50;31.80;;;;;;8366747;28;20277;-46
2022/04/23 03:06:19;;;;;;;;;;;20.60;31.90;;;;;;8366893;28;20400;-45
2022/04/23 03:10:19;;;;;;;;;;;20.60;31.90;;;;;;8366310;28;19924;-44
2022/04/23 03:14:20;;;;;;;;;;;20.60;31.90;;;;;;8366214;28;20015;-45
2022/04/23 03:18:21;;;;;;;;;;;20.60;32.00;;;;;;8365682;28;19927;-46
2022/04/23 03:22:22;;;;;;;;;;;20.50;31.90;;;;;;8366097;28;19980;-45
2022/04/23 03:26:22;;;;;;;;;;;20.60;31.90;;;;;;8365901;28;19924;-45
2022/04/23 03:30:23;;;;;;;;;;;20.50;31.90;;;;;;8365576;28;19948;-45
2022/04/23 03:34:23;;;;;;;;;;;20.50;31.90;;;;;;8374779;28;19931;-45
2022/04/23 03:38:23;;;;;;;;;;;20.50;31.90;;;;;;8359475;28;20389;-45
2022/04/23 03:42:24;;;;;;;;;;;20.50;32.40;;;;;;8332008;28;19918;-45
2022/04/23 03:46:24;;;;;;;;;;;20.50;31.90;;;;;;8332473;28;20350;-45
2022/04/23 03:50:26;;;;;;;;;;;20.50;31.90;;;;;;8332897;28;19920;-46
2022/04/23 03:54:26;;;;;;;;;;;20.50;31.90;;;;;;8331466;28;19925;-46
2022/04/23 03:58:28;;;;;;;;;;;20.50;31.90;;;;;;8331907;28;19917;-45
2022/04/23 04:02:28;;;;;;;;;;;20.50;31.90;;;;;;8331515;28;20015;-45
2022/04/23 04:06:29;;;;;;;;;;;20.50;31.90;;;;;;8330883;28;20308;-45
2022/04/23 04:10:29;;;;;;;;;;;20.50;31.90;;;;;;8331807;28;19921;-45
2022/04/23 04:14:30;;;;;;;;;;;20.50;31.90;;;;;;8330949;28;19929;-45
2022/04/23 04:18:31;;;;;;;;;;;20.40;31.90;;;;;;8330704;28;19917;-45
2022/04/23 04:22:31;;;;;;;;;;;20.40;31.90;;;;;;8331116;28;20355;-50
2022/04/23 04:26:32;;;;;;;;;;;20.40;31.90;;;;;;8330980;28;19917;-47
2022/04/23 04:31:47;;;;;;;;;;;20.40;31.90;;;;;;8331219;28;20003;-48
2022/04/23 04:34:53;;;;;;;;;;;20.40;31.90;;;;;;8330966;28;19925;-48
2022/04/23 04:38:53;;;;;;;;;;;20.40;31.90;;;;;;8330274;28;19924;-48
2022/04/23 04:42:53;;;;;;;;;;;20.40;31.90;;;;;;8330600;28;19917;-50
2022/04/23 04:46:54;;;;;;;;;;;20.40;32.00;;;;;;8330529;28;20392;-49
2022/04/23 04:50:54;;;;;;;;;;;20.40;31.90;;;;;;8330298;28;20306;-45
2022/04/23 04:54:55;;;;;;;;;;;20.40;32.00;;;;;;8330725;28;19956;-47
2022/04/23 04:58:55;;;;;;;;;;;20.40;32.00;;;;;;8330347;28;19921;-48
2022/04/23 05:02:56;;;;;;;;;;;20.40;32.00;;;;;;8329833;28;19940;-49
2022/04/23 05:06:57;;;;;;;;;;;20.40;32.00;;;;;;8330558;28;19924;-45
2022/04/23 05:10:57;;;;;;;;;;;20.40;32.10;;;;;;8330321;28;19937;-46
2022/04/23 05:14:58;;;;;;;;;;;20.40;32.00;;;;;;8329631;28;19972;-47
2022/04/23 05:18:58;;;;;;;;;;;20.40;32.00;;;;;;8330310;28;20003;-46
2022/04/23 05:22:58;;;;;;;;;;;20.40;32.00;;;;;;8330144;28;19944;-48
2022/04/23 05:26:59;;;;;;;;;;;20.40;32.00;;;;;;8329440;28;19913;-45
2022/04/23 05:30:59;;;;;;;;;;;20.40;32.00;;;;;;8332369;28;19917;-48
2022/04/23 05:35:00;;;;;;;;;;;20.30;31.90;;;;;;8336530;28;19929;-46
2022/04/23 05:39:00;;;;;;;;;;;20.40;32.00;;;;;;8336185;28;19971;-50
2022/04/23 05:43:01;;;;;;;;;;;20.40;32.00;;;;;;8336202;28;19918;-45
2022/04/23 05:47:01;;;;;;;;;;;20.40;32.00;;;;;;8335991;28;19919;-47
2022/04/23 05:51:02;;;;;;;;;;;20.40;32.00;;;;;;8335744;28;19913;-47
2022/04/23 05:55:02;;;;;;;;;;;20.40;32.00;;;;;;8335740;28;19932;-49
2022/04/23 05:59:03;;;;;;;;;;;20.40;32.00;;;;;;8335599;28;19917;-45
2022/04/23 06:03:03;;;;;;;;;;;20.40;32.00;;;;;;8334620;28;20044;-47
2022/04/23 06:07:04;;;;;;;;;;;20.40;32.00;;;;;;8335559;28;20359;-46
2022/04/23 06:11:04;;;;;;;;;;;20.30;32.00;;;;;;8335423;28;19921;-46
2022/04/23 06:15:05;;;;;;;;;;;20.40;32.10;;;;;;8334459;28;19932;-46
2022/04/23 06:19:06;;;;;;;;;;;20.40;32.10;;;;;;8316600;28;22216;-48
2022/04/23 06:23:06;;;;;;;;;;;20.40;32.00;;;;;;8334783;28;19967;-45
2022/04/23 06:27:07;;;;;;;;;;;20.40;32.10;;;;;;8334875;28;19921;-45
2022/04/23 06:31:07;;;;;;;;;;;20.40;32.00;;;;;;8334783;28;19918;-47
2022/04/23 06:35:08;;;;;;;;;;;20.40;32.10;;;;;;8334485;28;19925;-47
2022/04/23 06:39:09;;;;;;;;;;;20.40;32.10;;;;;;8333897;28;19917;-45
2022/04/23 06:43:09;;;;;;;;;;;20.40;32.10;;;;;;8333455;28;19963;-46
2022/04/23 06:47:10;;;;;;;;;;;20.40;32.00;;;;;;8334595;28;19921;-47
2022/04/23 06:51:10;;;;;;;;;;;20.40;32.10;;;;;;8333573;28;20353;-46
2022/04/23 06:55:10;;;;;;;;;;;20.40;32.10;;;;;;8333848;28;20385;-49
2022/04/23 06:59:12;;;;;;;;;;;20.40;32.10;;;;;;8333669;28;20362;-47
2022/04/23 07:03:12;;;;;;;;;;;20.40;32.10;;;;;;8342709;28;19921;-49
2022/04/23 07:07:13;;;;;;;;;;;20.40;32.10;;;;;;8367134;28;20280;-47
2022/04/23 07:11:13;;;;;;;;;;;20.40;32.20;;;;;;8366373;28;20377;-45
2022/04/23 07:15:15;;;;;;;;;;;20.40;32.20;;;;;;8365845;28;19925;-48
2022/04/23 07:19:15;;;;;;;;;;;20.40;32.20;;;;;;8366165;28;19962;-45
2022/04/23 07:27:35;;;;;;;;;;;20.40;32.20;;;;;;8365543;28;19936;-47
2022/04/23 07:31:37;;;;;;;;;;;20.40;32.20;;;;;;8366182;28;20403;-45
2022/04/23 07:40:00;;;;;;;;;;;20.40;32.20;;;;;;8367039;28;19924;-45
2022/04/23 07:44:00;;;;;;;;;;;20.40;32.20;;;;;;8367317;28;19944;-45
2022/04/23 07:48:01;;;;;;;;;;;20.40;32.20;;;;;;8367013;28;20428;-45
2022/04/23 07:52:01;;;;;;;;;;;20.40;32.30;;;;;;8366437;28;19913;-45
2022/04/23 07:56:02;;;;;;;;;;;20.40;32.30;;;;;;8364576;28;20019;-45
2022/04/23 08:00:03;;;;;;;;;;;20.40;32.30;;;;;;8365062;28;19924;-45
2022/04/23 08:04:03;;;;;;;;;;;20.40;32.20;;;;;;8365602;28;19921;-45
2022/04/23 08:08:04;;;;;;;;;;;20.50;32.30;;;;;;8366011;28;19944;-45
2022/04/23 08:12:08;;;;;;;;;;;20.50;32.30;;;;;;8364896;28;19920;-45
2022/04/23 08:16:09;;;;;;;;;;;20.50;32.30;;;;;;8365676;28;19925;-45
2022/04/23 08:20:10;;;;;;;;;;;20.50;32.30;;;;;;8365402;28;20404;-44
2022/04/23 08:24:11;;;;;;;;;;;20.50;32.80;;;;;;8363976;28;19946;-49
2022/04/23 08:32:30;;;;;;;;;;;20.40;32.30;;;;;;8366397;28;19924;-45
2022/04/23 08:36:35;;;;;;;;;;;20.50;32.40;;;;;;8363639;28;20271;-46
2022/04/23 08:40:44;;;;;;;;;;;20.50;32.40;;;;;;8363710;28;19924;-46
2022/04/23 08:44:44;;;;;;;;;;;20.50;32.50;;;;;;8363961;28;19916;-46
2022/04/23 08:48:49;;;;;;;;;;;20.40;32.50;;;;;;8363468;28;19923;-46
2022/04/23 08:52:51;;;;;;;;;;;20.50;32.50;;;;;;8363800;28;20426;-46
2022/04/23 08:56:52;;;;;;;;;;;20.50;32.50;;;;;;8362807;28;19948;-46
2022/04/23 09:00:52;;;;;;;;;;;20.40;32.40;;;;;;8363405;28;19924;-45
2022/04/23 09:04:56;;;;;;;;;;;20.50;32.50;;;;;;8362658;28;19921;-47
2022/04/23 09:09:12;;;;;;;;;;;20.50;32.50;;;;;;8362500;28;20293;-46
2022/04/23 09:13:29;;;;;;;;;;;20.50;32.50;;;;;;8363498;28;19936;-46
2022/04/23 09:26:18;;;;;;;;;;;20.50;32.50;;;;;;8362962;28;19924;-49
2022/04/23 09:30:18;;;;;;;;;;;20.50;32.50;;;;;;8362337;28;19917;-46
2022/04/23 09:34:21;;;;;;;;;;;20.50;32.50;;;;;;8362650;28;19981;-50
2022/04/23 09:38:22;;;;;;;;;;;20.50;32.70;;;;;;8363026;28;19913;-46
2022/04/23 09:42:22;;;;;;;;;;;20.50;32.50;;;;;;8362109;28;19927;-49
2022/04/23 09:46:23;;;;;;;;;;;20.50;32.50;;;;;;8362724;28;20389;-45
2022/04/23 09:50:23;;;;;;;;;;;20.50;32.50;;;;;;8362768;28;19920;-47
2022/04/23 09:54:24;;;;;;;;;;;20.50;32.50;;;;;;8361780;28;19917;-46
2022/04/23 09:58:29;;;;;;;;;;;20.50;32.50;;;;;;8362603;28;19935;-46
2022/04/23 10:02:29;;;;;;;;;;;20.50;32.50;;;;;;8361915;28;20369;-44
2022/04/23 10:06:35;;;;;;;;;;;20.50;32.50;;;;;;8360810;28;19924;-46
2022/04/23 10:10:38;;;;;;;;;;;20.50;32.50;;;;;;8362175;28;19913;-46
2022/04/23 10:14:42;;;;;;;;;;;20.60;32.60;;;;;;8361632;28;19925;-46
2022/04/23 10:18:43;;;;;;;;;;;20.70;32.50;;;;;;8365670;28;19956;-45
2022/04/23 10:23:02;;;;;;;;;;;20.70;32.40;;;;;;8368446;28;19924;-47
2022/04/23 10:27:10;;;;;;;;;;;20.80;32.40;;;;;;8367385;28;19941;-46
2022/04/23 10:31:12;;;;;;;;;;;20.90;32.30;;;;;;8368016;28;20369;-45
2022/04/23 10:35:18;;;;;;;;;;;20.90;32.30;;;;;;8367732;28;19927;-46
2022/04/23 10:39:21;;;;;;;;;;;20.90;32.30;;;;;;8366930;28;19917;-46
2022/04/23 10:43:21;;;;;;;;;;;21.00;32.30;;;;;;8367806;28;20433;-46
2022/04/23 10:47:34;;;;;;;;;;;21.00;32.30;;;;;;8367386;28;19924;-45
2022/04/23 10:51:46;;;;;;;;;;;21.00;32.30;;;;;;8367584;28;19917;-46
2022/04/23 10:56:06;;;;;;;;;;;21.10;32.40;;;;;;8367218;28;19921;-45
2022/04/23 11:00:10;;;;;;;;;;;21.10;32.30;;;;;;8366508;28;19923;-45
2022/04/23 11:04:12;;;;;;;;;;;21.10;32.30;;;;;;8366992;28;20378;-46
2022/04/23 11:12:50;;;;;;;;;;;21.20;32.30;;;;;;8366202;28;19927;-45
2022/04/23 11:16:54;;;;;;;;;;;21.30;32.30;;;;;;8366273;28;19925;-45
2022/04/23 11:20:55;;;;;;;;;;;21.30;32.30;;;;;;8365799;28;19970;-44
2022/04/23 11:24:57;;;;;;;;;;;21.40;32.30;;;;;;8366428;28;19913;-45
2022/04/23 11:28:58;;;;;;;;;;;21.40;32.30;;;;;;8366070;28;20340;-45
2022/04/23 11:33:09;;;;;;;;;;;21.40;32.30;;;;;;8365357;28;19974;-45
2022/04/23 11:37:10;;;;;;;;;;;21.50;32.30;;;;;;8365894;28;20345;-45
2022/04/23 11:41:10;;;;;;;;;;;21.60;32.30;;;;;;8365617;28;20283;-45
2022/04/23 11:45:12;;;;;;;;;;;21.70;32.80;;;;;;8365156;28;19917;-47
2022/04/23 11:49:25;;;;;;;;;;;21.70;32.30;;;;;;8365830;28;19966;-45
2022/04/23 11:53:26;;;;;;;;;;;21.70;32.20;;;;;;8365425;28;19916;-45
2022/04/23 11:57:26;;;;;;;;;;;21.80;32.20;;;;;;8364289;28;19932;-47
2022/04/23 12:01:27;;;;;;;;;;;21.80;32.10;;;;;;8364947;28;19978;-45
2022/04/23 12:05:34;;;;;;;;;;;21.80;32.10;;;;;;8364574;28;19921;-45
2022/04/23 12:09:50;;;;;;;;;;;21.90;32.10;;;;;;8364410;28;19920;-45
2022/04/23 12:13:51;;;;;;;;;;;21.90;32.10;;;;;;8364752;28;20369;-45
2022/04/23 12:17:52;;;;;;;;;;;22.00;32.10;;;;;;8363798;28;20374;-48
2022/04/23 12:21:57;;;;;;;;;;;22.00;32.10;;;;;;8364105;28;19916;-45
2022/04/23 12:26:07;;;;;;;;;;;22.00;32.00;;;;;;8364067;28;19928;-45
2022/04/23 12:43:28;;;;;;;;;;;22.10;32.00;;;;;;8366610;28;19923;-44
2022/04/23 12:47:29;;;;;;;;;;;22.20;32.00;;;;;;8363313;28;20004;-44
2022/04/23 12:51:29;;;;;;;;;;;22.20;32.00;;;;;;8363446;28;19936;-44
2022/04/23 12:55:32;;;;;;;;;;;22.30;32.00;;;;;;8363530;28;19925;-46
2022/04/23 12:59:33;;;;;;;;;;;22.30;32.00;;;;;;8363277;28;19912;-45
2022/04/23 13:03:37;;;;;;;;;;;22.30;32.00;;;;;;8363088;28;20447;-44
2022/04/23 13:11:56;;;;;;;;;;;22.40;32.00;;;;;;8363069;28;20293;-45
2022/04/23 13:15:57;;;;;;;;;;;22.40;32.00;;;;;;8363002;28;19929;-44
2022/04/23 13:19:57;;;;;;;;;;;22.40;31.90;;;;;;8362947;28;20003;-46
2022/04/23 13:23:58;;;;;;;;;;;22.50;31.90;;;;;;8362665;28;19920;-48
2022/04/23 13:27:58;;;;;;;;;;;22.40;31.90;;;;;;8362786;28;20438;-46
2022/04/23 13:31:59;;;;;;;;;;;22.50;32.00;;;;;;8362835;28;19921;-46
2022/04/23 13:35:59;;;;;;;;;;;22.50;31.90;;;;;;8362149;28;20416;-48
2022/04/23 13:40:00;;;;;;;;;;;22.50;31.90;;;;;;8362788;28;19920;-47
2022/04/23 13:44:02;;;;;;;;;;;22.50;31.90;;;;;;8362461;28;19944;-45
2022/04/23 13:48:04;;;;;;;;;;;22.50;31.90;;;;;;8362006;28;19924;-49
2022/04/23 13:52:04;;;;;;;;;;;22.50;32.00;;;;;;8364798;28;19923;-49
2022/04/23 13:56:05;;;;;;;;;;;22.50;31.90;;;;;;8368824;28;20421;-46
2022/04/23 14:00:06;;;;;;;;;;;22.50;31.90;;;;;;8368704;28;19923;-45
2022/04/23 14:12:44;;;;;;;;;;;22.60;32.00;;;;;;8367932;28;19944;-50
2022/04/23 14:16:45;;;;;;;;;;;22.60;31.90;;;;;;8368191;28;20302;-46
2022/04/23 14:20:45;;;;;;;;;;;22.60;31.90;;;;;;8367502;28;19927;-45
2022/04/23 14:24:46;;;;;;;;;;;22.70;31.90;;;;;;8368240;28;19935;-46
2022/04/23 14:28:46;;;;;;;;;;;22.70;31.90;;;;;;8349906;28;20016;-47
2022/04/23 14:32:46;;;;;;;;;;;22.70;31.90;;;;;;8367242;28;19917;-47
2022/04/23 14:36:47;;;;;;;;;;;22.70;31.90;;;;;;8367376;28;19925;-46
2022/04/23 14:40:47;;;;;;;;;;;22.70;31.90;;;;;;8367519;28;20023;-46
2022/04/23 14:44:48;;;;;;;;;;;22.80;31.90;;;;;;8367158;28;20047;-45
2022/04/23 14:48:48;;;;;;;;;;;22.80;31.90;;;;;;8367431;28;19923;-47
2022/04/23 14:57:08;;;;;;;;;;;22.80;31.90;;;;;;8367319;28;20472;-46
2022/04/23 15:01:08;;;;;;;;;;;22.80;31.90;;;;;;8366848;28;19948;-46
2022/04/23 15:05:09;;;;;;;;;;;22.80;31.90;;;;;;8366285;28;19921;-46
2022/04/23 15:09:10;;;;;;;;;;;22.80;31.90;;;;;;8366074;28;19962;-47
2022/04/23 15:13:11;;;;;;;;;;;22.80;31.90;;;;;;8366679;28;19920;-47
2022/04/23 15:17:11;;;;;;;;;;;22.80;31.90;;;;;;8366223;28;20439;-46
2022/04/23 15:21:12;;;;;;;;;;;22.80;31.90;;;;;;8366370;28;19935;-46
2022/04/23 15:25:14;;;;;;;;;;;22.80;31.80;;;;;;8366265;28;19952;-45
2022/04/23 15:29:15;;;;;;;;;;;22.90;31.90;;;;;;8365973;28;20316;-46
2022/04/23 15:33:15;;;;;;;;;;;22.90;31.90;;;;;;8365263;28;19970;-46
2022/04/23 15:37:16;;;;;;;;;;;22.80;31.90;;;;;;8365554;28;19931;-45
2022/04/23 15:41:16;;;;;;;;;;;22.90;31.90;;;;;;8365621;28;20267;-46
2022/04/23 15:45:17;;;;;;;;;;;22.90;32.00;;;;;;8365396;28;19917;-45
2022/04/23 15:49:17;;;;;;;;;;;22.90;32.00;;;;;;8365132;28;19928;-46
2022/04/23 15:53:18;;;;;;;;;;;22.90;32.00;;;;;;8365178;28;19967;-45
2022/04/23 15:57:18;;;;;;;;;;;22.90;32.00;;;;;;8364465;28;19925;-46
2022/04/23 16:01:19;;;;;;;;;;;22.90;32.00;;;;;;8364901;28;19925;-46
2022/04/23 16:05:19;;;;;;;;;;;22.90;32.50;;;;;;8364865;28;19921;-45
2022/04/23 16:09:19;;;;;;;;;;;22.90;32.00;;;;;;8363010;28;20437;-46
2022/04/23 16:13:20;;;;;;;;;;;22.90;32.00;;;;;;8364669;28;19924;-46
2022/04/23 16:17:21;;;;;;;;;;;22.90;32.00;;;;;;8363482;28;19928;-46
2022/04/23 16:21:21;;;;;;;;;;;22.90;32.00;;;;;;8363745;28;19944;-46
2022/04/23 16:25:22;;;;;;;;;;;22.90;32.00;;;;;;8365883;28;19913;-45
2022/04/23 16:29:23;;;;;;;;;;;22.90;32.00;;;;;;8343747;28;19921;-47
2022/04/23 16:33:23;;;;;;;;;;;22.90;32.00;;;;;;8330653;28;20073;-45
2022/04/23 16:50:21;;;;;;;;;;;23.00;32.00;;;;;;8333964;28;19944;-46
2022/04/23 16:54:21;;;;;;;;;;;23.00;32.00;;;;;;8329974;28;19921;-46
2022/04/23 16:58:22;;;;;;;;;;;23.00;32.00;;;;;;8330484;28;19926;-46
2022/04/23 17:02:22;;;;;;;;;;;23.00;32.50;;;;;;8330398;28;19917;-46
2022/04/23 17:06:22;;;;;;;;;;;23.00;32.00;;;;;;8329197;28;19921;-46
2022/04/23 17:10:23;;;;;;;;;;;23.00;32.00;;;;;;8330061;28;19917;-45
2022/04/23 17:14:23;;;;;;;;;;;23.00;32.00;;;;;;8329987;28;19921;-45
2022/04/23 17:18:24;;;;;;;;;;;23.00;32.00;;;;;;8329417;28;19965;-47
2022/04/23 17:22:24;;;;;;;;;;;23.00;32.00;;;;;;8329998;28;20023;-45
2022/04/23 17:26:25;;;;;;;;;;;23.00;32.00;;;;;;8331386;28;19917;-48
2022/04/23 17:30:25;;;;;;;;;;;23.00;31.90;;;;;;8336118;28;19917;-46
2022/04/23 17:34:26;;;;;;;;;;;23.00;31.90;;;;;;8336549;28;19917;-47
2022/04/23 17:42:45;;;;;;;;;;;23.00;31.90;;;;;;8335861;28;19924;-46
2022/04/23 17:46:47;;;;;;;;;;;23.10;32.00;;;;;;8336136;28;19913;-46
2022/04/23 17:50:47;;;;;;;;;;;23.10;32.00;;;;;;8335600;28;19920;-45
2022/04/23 17:54:48;;;;;;;;;;;23.10;32.00;;;;;;8335628;28;19921;-45
2022/04/23 17:58:48;;;;;;;;;;;23.10;32.00;;;;;;8335765;28;20003;-45
2022/04/23 18:07:26;;;;;;;;;;;23.10;32.00;;;;;;8335805;28;19967;-45
2022/04/23 18:11:27;;;;;;;;;;;23.10;32.00;;;;;;8335491;28;19913;-46
2022/04/23 18:15:27;;;;;;;;;;;23.10;32.00;;;;;;8334613;28;19925;-45
2022/04/23 18:19:29;;;;;;;;;;;23.20;32.00;;;;;;8335204;28;20332;-45
2022/04/23 18:23:30;;;;;;;;;;;23.10;32.00;;;;;;8334539;28;19996;-46
2022/04/23 18:27:32;;;;;;;;;;;23.10;32.00;;;;;;8335093;28;19921;-46
2022/04/23 18:31:33;;;;;;;;;;;23.10;31.90;;;;;;8335142;28;19983;-49
2022/04/23 18:35:33;;;;;;;;;;;23.20;32.00;;;;;;8334196;28;19971;-45
2022/04/23 18:39:34;;;;;;;;;;;23.20;32.00;;;;;;8333807;28;19917;-46
2022/04/23 18:43:34;;;;;;;;;;;23.10;32.00;;;;;;8334266;28;19917;-45
2022/04/23 18:47:36;;;;;;;;;;;23.10;32.00;;;;;;8333705;28;19984;-45
2022/04/23 18:51:37;;;;;;;;;;;23.10;32.00;;;;;;8334113;28;19913;-45
2022/04/23 18:55:37;;;;;;;;;;;23.10;32.00;;;;;;8333991;28;20019;-50
2022/04/23 18:59:38;;;;;;;;;;;23.20;32.10;;;;;;8333490;28;20378;-46
2022/04/23 19:03:39;;;;;;;;;;;23.10;32.00;;;;;;8346729;28;19998;-45
2022/04/23 19:07:39;;;;;;;;;;;23.10;32.00;;;;;;8366447;28;19916;-46
2022/04/23 19:11:42;;;;;;;;;;;23.20;32.10;;;;;;8366325;28;20376;-45
2022/04/23 19:15:42;;;;;;;;;;;23.20;32.10;;;;;;8366181;28;19925;-46
2022/04/23 19:19:43;;;;;;;;;;;23.20;32.00;;;;;;8366120;28;19943;-46
2022/04/23 19:28:04;;;;;;;;;;;23.20;32.00;;;;;;8370040;28;20319;-47
2022/04/23 19:32:05;;;;;;;;;;;23.20;32.00;;;;;;8366074;28;20014;-46
2022/04/23 19:36:06;;;;;;;;;;;23.20;32.10;;;;;;8365029;28;20219;-47
2022/04/23 19:40:06;;;;;;;;;;;23.20;32.10;;;;;;8365898;28;19986;-46
2022/04/23 19:44:07;;;;;;;;;;;23.20;32.00;;;;;;8365343;28;19917;-47
2022/04/23 19:48:08;;;;;;;;;;;23.20;32.00;;;;;;8364763;28;19917;-47
2022/04/23 19:52:09;;;;;;;;;;;23.30;32.10;;;;;;8365180;28;19919;-46
2022/04/23 19:56:09;;;;;;;;;;;23.30;32.10;;;;;;8365071;28;19925;-46
2022/04/23 20:00:11;;;;;;;;;;;23.30;32.10;;;;;;8364459;28;19923;-47
2022/04/23 20:04:11;;;;;;;;;;;23.30;32.10;;;;;;8364892;28;20361;-45
2022/04/23 20:08:11;;;;;;;;;;;23.30;32.10;;;;;;8364622;28;19921;-45
2022/04/23 20:12:12;;;;;;;;;;;23.30;32.10;;;;;;8364192;28;19979;-48
2022/04/23 20:16:12;;;;;;;;;;;23.30;32.10;;;;;;8364240;28;20373;-46
2022/04/23 20:20:13;;;;;;;;;;;23.30;32.10;;;;;;8364604;28;19971;-44
2022/04/23 20:24:14;;;;;;;;;;;23.30;32.10;;;;;;8363743;28;19916;-44
2022/04/23 20:28:15;;;;;;;;;;;23.30;32.10;;;;;;8364305;28;19917;-43
2022/04/23 20:32:15;;;;;;;;;;;23.30;32.10;;;;;;8364195;28;19917;-46
2022/04/23 20:40:36;;;;;;;;;;;23.30;32.10;;;;;;8364103;28;19923;-45
2022/04/23 20:44:38;;;;;;;;;;;23.30;32.10;;;;;;8363544;28;19920;-45
2022/04/23 20:48:39;;;;;;;;;;;23.30;32.20;;;;;;8363812;28;20283;-46
2022/04/23 20:56:59;;;;;;;;;;;23.20;32.20;;;;;;8363123;28;20018;-44
2022/04/23 21:00:59;;;;;;;;;;;23.20;32.20;;;;;;8362666;28;20373;-44
2022/04/23 21:04:59;;;;;;;;;;;23.20;32.20;;;;;;8363110;28;19996;-46
2022/04/23 21:09:00;;;;;;;;;;;23.20;32.30;;;;;;8362496;28;19917;-44
2022/04/23 21:13:00;;;;;;;;;;;23.10;32.20;;;;;;8363254;28;19962;-46
2022/04/23 21:17:01;;;;;;;;;;;23.10;32.20;;;;;;8363152;28;19928;-44
2022/04/23 21:21:02;;;;;;;;;;;23.10;32.20;;;;;;8362506;28;19917;-45
2022/04/23 21:25:03;;;;;;;;;;;23.10;32.30;;;;;;8363149;28;19917;-46
2022/04/23 21:29:05;;;;;;;;;;;23.00;32.20;;;;;;8362884;28;19962;-45
2022/04/23 21:33:06;;;;;;;;;;;23.00;32.20;;;;;;8362511;28;20366;-46
2022/04/23 21:37:07;;;;;;;;;;;23.00;32.20;;;;;;8344647;28;19932;-45
2022/04/23 21:45:26;;;;;;;;;;;22.90;32.20;;;;;;8362327;28;19923;-45
2022/04/23 21:49:26;;;;;;;;;;;22.90;32.20;;;;;;8362759;28;20278;-48
2022/04/23 21:53:27;;;;;;;;;;;22.90;32.30;;;;;;8362525;28;19913;-46
2022/04/23 21:57:27;;;;;;;;;;;22.90;32.30;;;;;;8362197;28;19932;-46
2022/04/23 22:01:28;;;;;;;;;;;22.90;32.30;;;;;;8361344;28;19962;-46
2022/04/23 22:05:29;;;;;;;;;;;22.90;32.30;;;;;;8360623;28;19971;-46
2022/04/23 22:09:30;;;;;;;;;;;22.80;32.30;;;;;;8361985;28;19916;-47
2022/04/23 22:13:31;;;;;;;;;;;22.80;32.30;;;;;;8363436;28;19913;-46
2022/04/23 22:17:31;;;;;;;;;;;22.80;32.30;;;;;;8367921;28;20297;-47
2022/04/23 22:21:32;;;;;;;;;;;22.80;32.30;;;;;;8367963;28;19921;-46
2022/04/23 22:25:32;;;;;;;;;;;22.80;32.30;;;;;;8368115;28;19963;-50
2022/04/23 22:29:33;;;;;;;;;;;22.70;32.30;;;;;;8367307;28;19920;-48
2022/04/23 22:33:33;;;;;;;;;;;22.70;32.30;;;;;;8367797;28;19917;-47
2022/04/23 22:37:33;;;;;;;;;;;22.70;32.30;;;;;;8367569;28;19924;-47
2022/04/23 22:41:34;;;;;;;;;;;22.70;32.30;;;;;;8366957;28;19916;-49
2022/04/23 22:45:34;;;;;;;;;;;22.70;32.30;;;;;;8367483;28;19917;-47
2022/04/23 22:49:35;;;;;;;;;;;22.70;32.30;;;;;;8367203;28;19962;-47
2022/04/23 22:53:35;;;;;;;;;;;22.60;32.30;;;;;;8366728;28;19935;-46
2022/04/23 22:57:36;;;;;;;;;;;22.60;32.30;;;;;;8366840;28;19999;-50
2022/04/23 23:01:36;;;;;;;;;;;22.60;32.30;;;;;;8366765;28;19917;-46
2022/04/23 23:05:37;;;;;;;;;;;22.60;32.30;;;;;;8366092;28;20472;-45
2022/04/23 23:09:37;;;;;;;;;;;22.60;32.30;;;;;;8366495;28;19971;-46
2022/04/23 23:13:37;;;;;;;;;;;22.50;32.30;;;;;;8366862;28;19920;-45
2022/04/23 23:17:38;;;;;;;;;;;22.50;32.30;;;;;;8365898;28;19971;-46
2022/04/23 23:21:38;;;;;;;;;;;22.50;32.30;;;;;;8366560;28;19917;-46
2022/04/23 23:25:39;;;;;;;;;;;22.50;32.30;;;;;;8365968;28;20449;-48
2022/04/23 23:29:39;;;;;;;;;;;22.50;32.40;;;;;;8365552;28;19923;-46
2022/04/23 23:33:40;;;;;;;;;;;22.40;32.30;;;;;;8366034;28;19913;-45
2022/04/23 23:37:40;;;;;;;;;;;22.40;32.30;;;;;;8365661;28;19970;-45
2022/04/23 23:41:41;;;;;;;;;;;22.40;32.40;;;;;;8365301;28;19923;-45
2022/04/23 23:45:44;;;;;;;;;;;22.40;32.40;;;;;;8365727;28;20487;-46
2022/04/23 23:49:44;;;;;;;;;;;22.30;32.30;;;;;;8365602;28;20289;-46
2022/04/23 23:53:46;;;;;;;;;;;22.30;32.40;;;;;;8364839;28;19913;-45
2022/04/23 23:57:46;;;;;;;;;;;22.30;32.40;;;;;;8365018;28;19931;-45
